Decoded Metar for SBCZ (CRUIZIRO DO SUL in BRAZIL) (IATA:CZS) | Meteo·Mobile Aviation Weather
aviador You're here:

SBCZ Decoded Metar

CRUIZIRO DO SUL in BRAZIL
Report Time2018-11-12 21:00:00
UTC Time2018-11-12 23:04:16
Flight Rules Old
Wind020° at 08 kt
W.Decomp.*RWY 10: 1.9 kt HW 7.8 kt LCW
W.Rank020° ranks 21
Current wind is above 020° avg. (3.2)
Visibility9999 m
Phenomena:N/A
Clouds:Scattered 030 Hf
Broken 100 Hf
Expected CloudBase > 2,800 ft AGL from Temp-Dew spread
Ceiling10,000 ft
Temp32°C (ISA +18)
Dew Point25°C (67% RH)
Heat Index39.3°C
QNH1004 hPa
Density Alt3,343 ft
Elevation558 ft
Report Wrong Elevation
Raw Report
METAR SBCZ 122100Z 02008KT 9999 SCT030 BKN100 32/25 Q1004=

Extra information for SBCZ:More info

Metar Taf Metar & Taf Last 4 Metars F.Rules Stats Wind Profile Meteogram Temp Stats Airport Information Weather charts Add Link Nearby VenuesMetar ALERT Operation Metar Decoded Social comments